sensor_id;sensor_type;location;lat;lon;timestamp;temperature;humidity
42085;DHT22;27746;52.228;20.890;2024-03-08T00:01:57;1.00;93.80
42085;DHT22;27746;52.228;20.890;2024-03-08T00:04:24;1.00;93.90
42085;DHT22;27746;52.228;20.890;2024-03-08T00:06:51;1.00;93.90
42085;DHT22;27746;52.228;20.890;2024-03-08T00:09:17;0.90;94.00
42085;DHT22;27746;52.228;20.890;2024-03-08T00:11:45;0.90;94.10
42085;DHT22;27746;52.228;20.890;2024-03-08T00:14:14;0.90;94.10
42085;DHT22;27746;52.228;20.890;2024-03-08T00:16:43;0.90;94.20
42085;DHT22;27746;52.228;20.890;2024-03-08T00:19:09;0.90;94.30
42085;DHT22;27746;52.228;20.890;2024-03-08T00:21:36;0.90;94.40
42085;DHT22;27746;52.228;20.890;2024-03-08T00:24:03;0.80;94.40
42085;DHT22;27746;52.228;20.890;2024-03-08T00:26:30;0.80;94.50
42085;DHT22;27746;52.228;20.890;2024-03-08T00:29:01;0.80;94.50
42085;DHT22;27746;52.228;20.890;2024-03-08T00:31:28;0.80;94.60
42085;DHT22;27746;52.228;20.890;2024-03-08T00:33:56;0.70;94.70
42085;DHT22;27746;52.228;20.890;2024-03-08T00:36:23;0.80;94.80
42085;DHT22;27746;52.228;20.890;2024-03-08T00:38:50;0.70;94.90
42085;DHT22;27746;52.228;20.890;2024-03-08T00:41:17;0.70;95.00
42085;DHT22;27746;52.228;20.890;2024-03-08T00:43:44;0.70;94.90
42085;DHT22;27746;52.228;20.890;2024-03-08T00:46:14;0.70;95.10
42085;DHT22;27746;52.228;20.890;2024-03-08T00:48:41;0.70;95.20
42085;DHT22;27746;52.228;20.890;2024-03-08T00:51:09;0.70;95.30
42085;DHT22;27746;52.228;20.890;2024-03-08T00:53:35;0.60;95.30
42085;DHT22;27746;52.228;20.890;2024-03-08T00:56:03;0.70;95.40
42085;DHT22;27746;52.228;20.890;2024-03-08T00:58:30;0.70;95.40
42085;DHT22;27746;52.228;20.890;2024-03-08T01:00:56;0.70;95.50
42085;DHT22;27746;52.228;20.890;2024-03-08T01:03:26;0.70;95.40
42085;DHT22;27746;52.228;20.890;2024-03-08T01:05:53;0.70;95.60
42085;DHT22;27746;52.228;20.890;2024-03-08T01:08:22;0.70;95.60
42085;DHT22;27746;52.228;20.890;2024-03-08T01:10:49;0.70;95.70
42085;DHT22;27746;52.228;20.890;2024-03-08T01:13:17;0.60;95.70
42085;DHT22;27746;52.228;20.890;2024-03-08T01:15:44;0.70;95.80
42085;DHT22;27746;52.228;20.890;2024-03-08T01:18:11;0.60;95.80
42085;DHT22;27746;52.228;20.890;2024-03-08T01:20:39;0.60;95.90
42085;DHT22;27746;52.228;20.890;2024-03-08T01:23:06;0.60;96.00
42085;DHT22;27746;52.228;20.890;2024-03-08T01:25:33;0.60;96.30
42085;DHT22;27746;52.228;20.890;2024-03-08T01:28:00;0.60;96.10
42085;DHT22;27746;52.228;20.890;2024-03-08T01:30:27;0.60;96.30
42085;DHT22;27746;52.228;20.890;2024-03-08T01:32:55;0.60;96.40
42085;DHT22;27746;52.228;20.890;2024-03-08T01:35:22;0.60;96.50
42085;DHT22;27746;52.228;20.890;2024-03-08T01:37:53;0.60;96.50
42085;DHT22;27746;52.228;20.890;2024-03-08T01:40:20;0.60;96.50
42085;DHT22;27746;52.228;20.890;2024-03-08T01:42:48;0.50;96.60
42085;DHT22;27746;52.228;20.890;2024-03-08T01:45:15;0.50;96.60
42085;DHT22;27746;52.228;20.890;2024-03-08T01:47:42;0.50;96.70
42085;DHT22;27746;52.228;20.890;2024-03-08T01:50:14;0.50;96.80
42085;DHT22;27746;52.228;20.890;2024-03-08T01:52:42;0.50;96.80
42085;DHT22;27746;52.228;20.890;2024-03-08T01:55:10;0.50;96.90
42085;DHT22;27746;52.228;20.890;2024-03-08T01:57:41;0.50;96.90
42085;DHT22;27746;52.228;20.890;2024-03-08T02:00:09;0.50;97.10
42085;DHT22;27746;52.228;20.890;2024-03-08T02:02:37;0.50;96.90
42085;DHT22;27746;52.228;20.890;2024-03-08T02:05:05;0.40;96.90
42085;DHT22;27746;52.228;20.890;2024-03-08T02:07:32;0.40;97.00
42085;DHT22;27746;52.228;20.890;2024-03-08T02:09:59;0.40;97.00
42085;DHT22;27746;52.228;20.890;2024-03-08T02:12:27;0.40;97.10
42085;DHT22;27746;52.228;20.890;2024-03-08T02:14:54;0.40;97.20
42085;DHT22;27746;52.228;20.890;2024-03-08T02:17:21;0.40;97.20
42085;DHT22;27746;52.228;20.890;2024-03-08T02:19:48;0.30;97.20
42085;DHT22;27746;52.228;20.890;2024-03-08T02:22:16;0.30;97.30
42085;DHT22;27746;52.228;20.890;2024-03-08T02:24:43;0.30;97.40
42085;DHT22;27746;52.228;20.890;2024-03-08T02:27:10;0.30;97.50
42085;DHT22;27746;52.228;20.890;2024-03-08T02:29:38;0.30;97.60
42085;DHT22;27746;52.228;20.890;2024-03-08T02:32:06;0.10;97.90
42085;DHT22;27746;52.228;20.890;2024-03-08T02:34:33;0.20;97.80
42085;DHT22;27746;52.228;20.890;2024-03-08T02:37:00;0.20;97.80
42085;DHT22;27746;52.228;20.890;2024-03-08T02:39:28;0.20;97.90
42085;DHT22;27746;52.228;20.890;2024-03-08T02:41:55;0.10;98.00
42085;DHT22;27746;52.228;20.890;2024-03-08T02:44:22;0.10;98.20
42085;DHT22;27746;52.228;20.890;2024-03-08T02:46:49;0.10;98.30
42085;DHT22;27746;52.228;20.890;2024-03-08T02:49:16;0.10;98.40
42085;DHT22;27746;52.228;20.890;2024-03-08T02:51:42;0.10;98.60
42085;DHT22;27746;52.228;20.890;2024-03-08T02:54:09;0.20;98.70
42085;DHT22;27746;52.228;20.890;2024-03-08T02:56:39;0.10;98.70
42085;DHT22;27746;52.228;20.890;2024-03-08T02:59:07;0.00;99.00
42085;DHT22;27746;52.228;20.890;2024-03-08T03:01:34;0.10;98.80
42085;DHT22;27746;52.228;20.890;2024-03-08T03:04:02;0.10;98.90
42085;DHT22;27746;52.228;20.890;2024-03-08T03:06:28;0.00;99.00
42085;DHT22;27746;52.228;20.890;2024-03-08T03:08:55;0.10;99.10
42085;DHT22;27746;52.228;20.890;2024-03-08T03:11:23;0.00;99.10
42085;DHT22;27746;52.228;20.890;2024-03-08T03:13:51;0.00;99.20
42085;DHT22;27746;52.228;20.890;2024-03-08T03:16:18;0.00;99.30
42085;DHT22;27746;52.228;20.890;2024-03-08T03:18:45;0.00;99.40
42085;DHT22;27746;52.228;20.890;2024-03-08T03:21:13;0.00;99.40
42085;DHT22;27746;52.228;20.890;2024-03-08T03:23:40;0.00;99.50
42085;DHT22;27746;52.228;20.890;2024-03-08T03:26:08;0.00;99.50
42085;DHT22;27746;52.228;20.890;2024-03-08T03:28:36;0.00;99.50
42085;DHT22;27746;52.228;20.890;2024-03-08T03:31:06;-0.10;99.50
42085;DHT22;27746;52.228;20.890;2024-03-08T03:33:33;-0.10;99.40
42085;DHT22;27746;52.228;20.890;2024-03-08T03:36:02;-0.10;99.40
42085;DHT22;27746;52.228;20.890;2024-03-08T03:38:30;-0.10;99.40
42085;DHT22;27746;52.228;20.890;2024-03-08T03:40:57;-0.10;99.40
42085;DHT22;27746;52.228;20.890;2024-03-08T03:43:29;-0.10;99.50
42085;DHT22;27746;52.228;20.890;2024-03-08T03:45:56;-0.30;99.50
42085;DHT22;27746;52.228;20.890;2024-03-08T03:48:24;-0.20;99.50
42085;DHT22;27746;52.228;20.890;2024-03-08T03:50:51;-0.20;99.50
42085;DHT22;27746;52.228;20.890;2024-03-08T03:53:18;-0.20;99.60
42085;DHT22;27746;52.228;20.890;2024-03-08T03:55:45;-0.20;99.60
42085;DHT22;27746;52.228;20.890;2024-03-08T03:58:12;-0.20;99.70
42085;DHT22;27746;52.228;20.890;2024-03-08T04:00:39;-0.20;99.70
42085;DHT22;27746;52.228;20.890;2024-03-08T04:03:07;-0.20;99.80
42085;DHT22;27746;52.228;20.890;2024-03-08T04:05:35;-0.30;99.90
42085;DHT22;27746;52.228;20.890;2024-03-08T04:08:02;-0.30;99.90
42085;DHT22;27746;52.228;20.890;2024-03-08T04:10:29;-0.30;99.90
42085;DHT22;27746;52.228;20.890;2024-03-08T04:12:56;-0.30;99.90
42085;DHT22;27746;52.228;20.890;2024-03-08T04:15:23;-0.30;99.90
42085;DHT22;27746;52.228;20.890;2024-03-08T04:17:51;-0.30;99.90
42085;DHT22;27746;52.228;20.890;2024-03-08T04:20:18;-0.30;99.90
42085;DHT22;27746;52.228;20.890;2024-03-08T04:22:46;-0.30;99.90
42085;DHT22;27746;52.228;20.890;2024-03-08T04:25:14;-0.30;99.90
42085;DHT22;27746;52.228;20.890;2024-03-08T04:27:41;-0.30;99.90
42085;DHT22;27746;52.228;20.890;2024-03-08T04:30:09;-0.30;99.90
42085;DHT22;27746;52.228;20.890;2024-03-08T04:32:36;-0.40;99.90
42085;DHT22;27746;52.228;20.890;2024-03-08T04:35:03;-0.40;99.90
42085;DHT22;27746;52.228;20.890;2024-03-08T04:37:30;-0.40;99.90
42085;DHT22;27746;52.228;20.890;2024-03-08T04:39:59;-0.40;99.90
42085;DHT22;27746;52.228;20.890;2024-03-08T04:42:26;-0.40;99.90
42085;DHT22;27746;52.228;20.890;2024-03-08T04:44:54;-0.40;99.90
42085;DHT22;27746;52.228;20.890;2024-03-08T04:47:21;-0.40;99.90
42085;DHT22;27746;52.228;20.890;2024-03-08T04:49:48;-0.30;99.90
42085;DHT22;27746;52.228;20.890;2024-03-08T04:52:16;-0.40;99.90
42085;DHT22;27746;52.228;20.890;2024-03-08T04:54:43;-0.40;99.90
42085;DHT22;27746;52.228;20.890;2024-03-08T04:57:11;-0.30;99.90
42085;DHT22;27746;52.228;20.890;2024-03-08T04:59:38;-0.40;99.90
42085;DHT22;27746;52.228;20.890;2024-03-08T05:02:05;-0.40;99.90
42085;DHT22;27746;52.228;20.890;2024-03-08T05:04:32;-0.40;99.90
42085;DHT22;27746;52.228;20.890;2024-03-08T05:06:59;-0.40;99.90
42085;DHT22;27746;52.228;20.890;2024-03-08T05:09:26;-0.50;99.90
42085;DHT22;27746;52.228;20.890;2024-03-08T05:11:59;-0.40;99.90
42085;DHT22;27746;52.228;20.890;2024-03-08T05:14:28;-0.40;99.90
42085;DHT22;27746;52.228;20.890;2024-03-08T05:16:55;-0.40;99.90
42085;DHT22;27746;52.228;20.890;2024-03-08T05:19:23;-0.50;99.90
42085;DHT22;27746;52.228;20.890;2024-03-08T05:21:50;-0.40;99.90
42085;DHT22;27746;52.228;20.890;2024-03-08T05:24:17;-0.50;99.90
42085;DHT22;27746;52.228;20.890;2024-03-08T05:26:45;-0.40;99.90
42085;DHT22;27746;52.228;20.890;2024-03-08T05:29:13;-0.40;99.90
42085;DHT22;27746;52.228;20.890;2024-03-08T05:31:47;-0.40;99.90
42085;DHT22;27746;52.228;20.890;2024-03-08T05:34:14;-0.40;99.90
42085;DHT22;27746;52.228;20.890;2024-03-08T05:36:45;-0.30;99.90
42085;DHT22;27746;52.228;20.890;2024-03-08T05:39:12;-0.30;99.90
42085;DHT22;27746;52.228;20.890;2024-03-08T05:41:40;-0.20;99.90
42085;DHT22;27746;52.228;20.890;2024-03-08T05:44:07;-0.10;99.90
42085;DHT22;27746;52.228;20.890;2024-03-08T05:46:34;-0.10;99.90
42085;DHT22;27746;52.228;20.890;2024-03-08T05:49:03;0.00;99.90
42085;DHT22;27746;52.228;20.890;2024-03-08T05:51:31;0.00;99.90
42085;DHT22;27746;52.228;20.890;2024-03-08T05:54:02;0.10;99.90
42085;DHT22;27746;52.228;20.890;2024-03-08T05:56:31;0.20;99.90
42085;DHT22;27746;52.228;20.890;2024-03-08T05:58:58;0.20;99.90
42085;DHT22;27746;52.228;20.890;2024-03-08T06:01:26;0.30;99.90
42085;DHT22;27746;52.228;20.890;2024-03-08T06:03:53;0.40;99.90
42085;DHT22;27746;52.228;20.890;2024-03-08T06:06:23;0.50;99.90
42085;DHT22;27746;52.228;20.890;2024-03-08T06:08:51;0.60;99.90
42085;DHT22;27746;52.228;20.890;2024-03-08T06:11:19;0.70;99.90
42085;DHT22;27746;52.228;20.890;2024-03-08T06:13:46;0.70;99.90
42085;DHT22;27746;52.228;20.890;2024-03-08T06:16:13;0.80;99.90
42085;DHT22;27746;52.228;20.890;2024-03-08T06:18:40;1.00;99.90
42085;DHT22;27746;52.228;20.890;2024-03-08T06:21:09;1.00;99.90
42085;DHT22;27746;52.228;20.890;2024-03-08T06:23:38;1.10;99.90
42085;DHT22;27746;52.228;20.890;2024-03-08T06:26:05;1.30;99.90
42085;DHT22;27746;52.228;20.890;2024-03-08T06:28:32;1.40;99.90
42085;DHT22;27746;52.228;20.890;2024-03-08T06:31:00;1.50;99.90
42085;DHT22;27746;52.228;20.890;2024-03-08T06:33:28;1.60;99.90
42085;DHT22;27746;52.228;20.890;2024-03-08T06:35:55;1.70;99.90
42085;DHT22;27746;52.228;20.890;2024-03-08T06:38:22;1.80;99.90
42085;DHT22;27746;52.228;20.890;2024-03-08T06:40:51;2.00;99.90
42085;DHT22;27746;52.228;20.890;2024-03-08T06:43:18;2.10;99.90
42085;DHT22;27746;52.228;20.890;2024-03-08T06:45:45;2.20;99.90
42085;DHT22;27746;52.228;20.890;2024-03-08T06:48:15;2.30;99.90
42085;DHT22;27746;52.228;20.890;2024-03-08T06:50:42;2.50;99.90
42085;DHT22;27746;52.228;20.890;2024-03-08T06:53:09;2.60;99.80
42085;DHT22;27746;52.228;20.890;2024-03-08T06:55:36;2.70;99.80
42085;DHT22;27746;52.228;20.890;2024-03-08T06:58:04;2.90;99.60
42085;DHT22;27746;52.228;20.890;2024-03-08T07:00:32;3.00;99.40
42085;DHT22;27746;52.228;20.890;2024-03-08T07:02:59;3.20;99.30
42085;DHT22;27746;52.228;20.890;2024-03-08T07:05:26;3.30;99.10
42085;DHT22;27746;52.228;20.890;2024-03-08T07:07:56;3.40;98.70
42085;DHT22;27746;52.228;20.890;2024-03-08T07:10:23;3.50;98.50
42085;DHT22;27746;52.228;20.890;2024-03-08T07:12:51;3.70;98.20
42085;DHT22;27746;52.228;20.890;2024-03-08T07:15:19;3.80;98.00
42085;DHT22;27746;52.228;20.890;2024-03-08T07:17:46;4.00;97.80
42085;DHT22;27746;52.228;20.890;2024-03-08T07:20:14;4.10;97.60
42085;DHT22;27746;52.228;20.890;2024-03-08T07:22:44;4.30;97.40
42085;DHT22;27746;52.228;20.890;2024-03-08T07:25:13;4.40;97.20
42085;DHT22;27746;52.228;20.890;2024-03-08T07:27:47;4.60;96.80
42085;DHT22;27746;52.228;20.890;2024-03-08T07:30:14;4.80;96.50
42085;DHT22;27746;52.228;20.890;2024-03-08T07:33:04;4.90;96.00
42085;DHT22;27746;52.228;20.890;2024-03-08T07:35:32;5.10;95.70
42085;DHT22;27746;52.228;20.890;2024-03-08T07:38:03;5.20;95.40
42085;DHT22;27746;52.228;20.890;2024-03-08T07:40:31;5.40;95.20
42085;DHT22;27746;52.228;20.890;2024-03-08T07:42:58;5.50;94.90
42085;DHT22;27746;52.228;20.890;2024-03-08T07:45:25;5.60;94.30
42085;DHT22;27746;52.228;20.890;2024-03-08T07:47:52;5.80;94.10
42085;DHT22;27746;52.228;20.890;2024-03-08T07:50:20;5.90;93.90
42085;DHT22;27746;52.228;20.890;2024-03-08T07:52:48;6.10;93.60
42085;DHT22;27746;52.228;20.890;2024-03-08T07:55:15;6.20;93.30
42085;DHT22;27746;52.228;20.890;2024-03-08T07:57:42;6.30;93.10
42085;DHT22;27746;52.228;20.890;2024-03-08T08:00:09;6.50;93.00
42085;DHT22;27746;52.228;20.890;2024-03-08T08:02:36;6.60;93.10
42085;DHT22;27746;52.228;20.890;2024-03-08T08:05:04;6.70;93.00
42085;DHT22;27746;52.228;20.890;2024-03-08T08:07:32;6.80;92.70
42085;DHT22;27746;52.228;20.890;2024-03-08T08:09:59;7.00;92.40
42085;DHT22;27746;52.228;20.890;2024-03-08T08:12:26;7.10;92.20
42085;DHT22;27746;52.228;20.890;2024-03-08T08:14:54;7.30;92.10
42085;DHT22;27746;52.228;20.890;2024-03-08T08:17:22;7.40;91.90
42085;DHT22;27746;52.228;20.890;2024-03-08T08:19:48;7.60;91.10
42085;DHT22;27746;52.228;20.890;2024-03-08T08:22:15;7.70;90.50
42085;DHT22;27746;52.228;20.890;2024-03-08T08:24:45;7.80;90.20
42085;DHT22;27746;52.228;20.890;2024-03-08T08:27:11;8.00;90.20
42085;DHT22;27746;52.228;20.890;2024-03-08T08:29:40;8.10;89.50
42085;DHT22;27746;52.228;20.890;2024-03-08T08:32:06;8.20;89.10
42085;DHT22;27746;52.228;20.890;2024-03-08T08:34:33;8.40;89.00
42085;DHT22;27746;52.228;20.890;2024-03-08T08:37:00;8.50;88.10
42085;DHT22;27746;52.228;20.890;2024-03-08T08:39:27;8.70;87.60
42085;DHT22;27746;52.228;20.890;2024-03-08T08:41:55;8.80;85.90
42085;DHT22;27746;52.228;20.890;2024-03-08T08:44:23;8.90;84.40
42085;DHT22;27746;52.228;20.890;2024-03-08T08:46:51;9.10;84.10
42085;DHT22;27746;52.228;20.890;2024-03-08T08:49:19;9.20;84.20
42085;DHT22;27746;52.228;20.890;2024-03-08T08:51:49;9.40;83.90
42085;DHT22;27746;52.228;20.890;2024-03-08T08:54:16;9.50;82.70
42085;DHT22;27746;52.228;20.890;2024-03-08T08:56:43;9.60;82.40
42085;DHT22;27746;52.228;20.890;2024-03-08T08:59:12;9.70;81.80
42085;DHT22;27746;52.228;20.890;2024-03-08T09:01:39;9.80;81.00
42085;DHT22;27746;52.228;20.890;2024-03-08T09:04:06;9.90;80.10
42085;DHT22;27746;52.228;20.890;2024-03-08T09:06:33;10.10;79.70
42085;DHT22;27746;52.228;20.890;2024-03-08T09:09:01;10.20;78.70
42085;DHT22;27746;52.228;20.890;2024-03-08T09:11:29;10.30;76.70
42085;DHT22;27746;52.228;20.890;2024-03-08T09:13:56;10.40;75.10
42085;DHT22;27746;52.228;20.890;2024-03-08T09:16:24;10.40;73.90
42085;DHT22;27746;52.228;20.890;2024-03-08T09:18:52;10.40;73.10
42085;DHT22;27746;52.228;20.890;2024-03-08T09:21:18;10.60;72.70
42085;DHT22;27746;52.228;20.890;2024-03-08T09:23:45;10.70;73.60
42085;DHT22;27746;52.228;20.890;2024-03-08T09:26:13;11.00;73.60
42085;DHT22;27746;52.228;20.890;2024-03-08T09:28:40;11.10;72.20
42085;DHT22;27746;52.228;20.890;2024-03-08T09:31:07;11.40;73.40
42085;DHT22;27746;52.228;20.890;2024-03-08T09:33:37;11.80;71.30
42085;DHT22;27746;52.228;20.890;2024-03-08T09:43:29;12.50;69.50
42085;DHT22;27746;52.228;20.890;2024-03-08T09:45:57;16.20;60.70
42085;DHT22;27746;52.228;20.890;2024-03-08T09:48:25;17.20;59.10
42085;DHT22;27746;52.228;20.890;2024-03-08T09:50:54;18.30;57.40
42085;DHT22;27746;52.228;20.890;2024-03-08T09:53:22;19.20;54.80
42085;DHT22;27746;52.228;20.890;2024-03-08T09:55:49;20.00;52.90
42085;DHT22;27746;52.228;20.890;2024-03-08T09:58:16;20.80;50.30
42085;DHT22;27746;52.228;20.890;2024-03-08T10:00:53;21.50;48.80
42085;DHT22;27746;52.228;20.890;2024-03-08T10:03:23;22.20;47.50
42085;DHT22;27746;52.228;20.890;2024-03-08T10:05:51;22.80;46.90
42085;DHT22;27746;52.228;20.890;2024-03-08T10:08:20;23.30;46.80
42085;DHT22;27746;52.228;20.890;2024-03-08T10:10:47;23.80;45.40
42085;DHT22;27746;52.228;20.890;2024-03-08T10:13:15;24.30;45.20
42085;DHT22;27746;52.228;20.890;2024-03-08T10:15:42;24.80;43.50
42085;DHT22;27746;52.228;20.890;2024-03-08T10:18:09;25.20;42.80
42085;DHT22;27746;52.228;20.890;2024-03-08T10:20:37;25.60;43.40
42085;DHT22;27746;52.228;20.890;2024-03-08T10:23:04;26.10;42.10
42085;DHT22;27746;52.228;20.890;2024-03-08T10:25:34;26.30;42.00
42085;DHT22;27746;52.228;20.890;2024-03-08T10:28:03;26.60;41.20
42085;DHT22;27746;52.228;20.890;2024-03-08T10:30:30;26.90;39.80
42085;DHT22;27746;52.228;20.890;2024-03-08T10:32:58;27.30;40.40
42085;DHT22;27746;52.228;20.890;2024-03-08T10:35:26;27.80;40.20
42085;DHT22;27746;52.228;20.890;2024-03-08T10:37:54;27.90;39.20
42085;DHT22;27746;52.228;20.890;2024-03-08T10:40:25;28.00;38.50
42085;DHT22;27746;52.228;20.890;2024-03-08T10:42:54;28.10;38.20
42085;DHT22;27746;52.228;20.890;2024-03-08T10:45:31;28.50;37.80
42085;DHT22;27746;52.228;20.890;2024-03-08T10:48:10;28.80;38.20
42085;DHT22;27746;52.228;20.890;2024-03-08T10:50:43;29.30;37.80
42085;DHT22;27746;52.228;20.890;2024-03-08T10:53:13;29.80;37.50
42085;DHT22;27746;52.228;20.890;2024-03-08T10:55:41;30.30;37.60
42085;DHT22;27746;52.228;20.890;2024-03-08T10:58:10;30.60;37.10
42085;DHT22;27746;52.228;20.890;2024-03-08T11:00:37;30.60;36.30
42085;DHT22;27746;52.228;20.890;2024-03-08T11:03:04;30.70;35.80
42085;DHT22;27746;52.228;20.890;2024-03-08T11:05:36;30.60;35.90
42085;DHT22;27746;52.228;20.890;2024-03-08T11:08:08;30.40;36.20
42085;DHT22;27746;52.228;20.890;2024-03-08T11:10:47;30.40;35.50
42085;DHT22;27746;52.228;20.890;2024-03-08T11:13:36;30.10;35.60
42085;DHT22;27746;52.228;20.890;2024-03-08T11:16:07;30.40;36.00
42085;DHT22;27746;52.228;20.890;2024-03-08T11:18:35;30.70;35.90
42085;DHT22;27746;52.228;20.890;2024-03-08T11:21:03;30.90;35.90
42085;DHT22;27746;52.228;20.890;2024-03-08T11:23:32;31.10;35.60
42085;DHT22;27746;52.228;20.890;2024-03-08T11:25:59;31.40;35.30
42085;DHT22;27746;52.228;20.890;2024-03-08T11:28:26;31.60;35.10
42085;DHT22;27746;52.228;20.890;2024-03-08T11:31:25;31.60;35.30
42085;DHT22;27746;52.228;20.890;2024-03-08T11:33:52;31.50;34.00
42085;DHT22;27746;52.228;20.890;2024-03-08T11:36:21;31.60;34.20
42085;DHT22;27746;52.228;20.890;2024-03-08T11:38:50;31.70;33.80
42085;DHT22;27746;52.228;20.890;2024-03-08T11:41:19;31.90;33.80
42085;DHT22;27746;52.228;20.890;2024-03-08T11:43:47;32.00;33.80
42085;DHT22;27746;52.228;20.890;2024-03-08T11:46:15;32.20;33.90
42085;DHT22;27746;52.228;20.890;2024-03-08T11:48:47;31.70;33.30
42085;DHT22;27746;52.228;20.890;2024-03-08T11:51:15;31.90;33.10
42085;DHT22;27746;52.228;20.890;2024-03-08T11:53:44;32.00;33.10
42085;DHT22;27746;52.228;20.890;2024-03-08T11:56:12;32.40;33.10
42085;DHT22;27746;52.228;20.890;2024-03-08T11:58:39;32.90;33.20
42085;DHT22;27746;52.228;20.890;2024-03-08T12:01:09;32.70;32.10
42085;DHT22;27746;52.228;20.890;2024-03-08T12:03:37;32.90;32.20
42085;DHT22;27746;52.228;20.890;2024-03-08T12:06:06;32.70;32.40
42085;DHT22;27746;52.228;20.890;2024-03-08T12:08:35;32.70;32.70
42085;DHT22;27746;52.228;20.890;2024-03-08T12:11:04;32.70;32.40
42085;DHT22;27746;52.228;20.890;2024-03-08T12:13:32;32.70;32.60
42085;DHT22;27746;52.228;20.890;2024-03-08T12:16:00;32.80;32.90
42085;DHT22;27746;52.228;20.890;2024-03-08T12:18:27;33.00;32.90
42085;DHT22;27746;52.228;20.890;2024-03-08T12:21:05;33.10;32.80
42085;DHT22;27746;52.228;20.890;2024-03-08T12:23:34;33.00;32.70
42085;DHT22;27746;52.228;20.890;2024-03-08T12:26:10;33.00;32.10
42085;DHT22;27746;52.228;20.890;2024-03-08T12:28:38;32.60;32.10
42085;DHT22;27746;52.228;20.890;2024-03-08T12:31:07;32.10;31.90
42085;DHT22;27746;52.228;20.890;2024-03-08T12:33:36;31.90;32.30
42085;DHT22;27746;52.228;20.890;2024-03-08T12:36:03;32.10;32.40
42085;DHT22;27746;52.228;20.890;2024-03-08T12:38:34;32.60;32.70
42085;DHT22;27746;52.228;20.890;2024-03-08T12:41:03;33.00;33.00
42085;DHT22;27746;52.228;20.890;2024-03-08T12:43:30;32.90;32.50
42085;DHT22;27746;52.228;20.890;2024-03-08T12:45:57;32.80;32.90
42085;DHT22;27746;52.228;20.890;2024-03-08T12:48:24;32.80;33.00
42085;DHT22;27746;52.228;20.890;2024-03-08T12:50:51;32.40;33.10
42085;DHT22;27746;52.228;20.890;2024-03-08T12:53:20;32.10;33.10
42085;DHT22;27746;52.228;20.890;2024-03-08T12:55:50;32.10;33.30
42085;DHT22;27746;52.228;20.890;2024-03-08T12:58:18;31.40;32.50
42085;DHT22;27746;52.228;20.890;2024-03-08T13:00:45;31.40;33.00
42085;DHT22;27746;52.228;20.890;2024-03-08T13:03:12;31.20;32.70
42085;DHT22;27746;52.228;20.890;2024-03-08T13:05:39;31.40;32.40
42085;DHT22;27746;52.228;20.890;2024-03-08T13:08:08;31.20;33.20
42085;DHT22;27746;52.228;20.890;2024-03-08T13:10:38;31.00;32.60
42085;DHT22;27746;52.228;20.890;2024-03-08T13:13:07;30.80;33.10
42085;DHT22;27746;52.228;20.890;2024-03-08T13:15:35;30.80;33.20
42085;DHT22;27746;52.228;20.890;2024-03-08T13:18:02;30.40;33.90
42085;DHT22;27746;52.228;20.890;2024-03-08T13:20:31;30.40;33.10
42085;DHT22;27746;52.228;20.890;2024-03-08T13:22:58;30.00;32.90
42085;DHT22;27746;52.228;20.890;2024-03-08T13:25:27;29.70;33.00
42085;DHT22;27746;52.228;20.890;2024-03-08T13:27:59;29.40;32.70
42085;DHT22;27746;52.228;20.890;2024-03-08T13:30:27;29.20;33.00
42085;DHT22;27746;52.228;20.890;2024-03-08T13:32:53;29.00;33.00
42085;DHT22;27746;52.228;20.890;2024-03-08T13:35:20;28.60;33.20
42085;DHT22;27746;52.228;20.890;2024-03-08T13:37:50;28.50;33.10
42085;DHT22;27746;52.228;20.890;2024-03-08T13:40:18;28.20;33.20
42085;DHT22;27746;52.228;20.890;2024-03-08T13:42:45;28.30;32.60
42085;DHT22;27746;52.228;20.890;2024-03-08T13:45:12;28.20;32.40
42085;DHT22;27746;52.228;20.890;2024-03-08T13:47:44;27.80;32.40
42085;DHT22;27746;52.228;20.890;2024-03-08T13:50:12;27.70;32.90
42085;DHT22;27746;52.228;20.890;2024-03-08T13:52:39;27.70;33.10
42085;DHT22;27746;52.228;20.890;2024-03-08T13:55:06;27.80;33.40
42085;DHT22;27746;52.228;20.890;2024-03-08T13:57:34;27.80;33.20
42085;DHT22;27746;52.228;20.890;2024-03-08T14:00:01;27.80;33.20
42085;DHT22;27746;52.228;20.890;2024-03-08T14:02:28;27.80;33.40
42085;DHT22;27746;52.228;20.890;2024-03-08T14:04:58;27.60;33.70
42085;DHT22;27746;52.228;20.890;2024-03-08T14:07:27;27.40;33.80
42085;DHT22;27746;52.228;20.890;2024-03-08T14:09:54;27.60;33.70
42085;DHT22;27746;52.228;20.890;2024-03-08T14:12:21;27.40;33.90
42085;DHT22;27746;52.228;20.890;2024-03-08T14:14:50;27.20;34.30
42085;DHT22;27746;52.228;20.890;2024-03-08T14:17:17;26.90;34.00
42085;DHT22;27746;52.228;20.890;2024-03-08T14:19:44;26.00;34.10
42085;DHT22;27746;52.228;20.890;2024-03-08T14:22:12;25.00;34.50
42085;DHT22;27746;52.228;20.890;2024-03-08T14:24:40;23.60;35.70
42085;DHT22;27746;52.228;20.890;2024-03-08T14:27:07;22.20;37.00
42085;DHT22;27746;52.228;20.890;2024-03-08T14:29:35;20.60;38.50
42085;DHT22;27746;52.228;20.890;2024-03-08T14:32:02;19.70;40.00
42085;DHT22;27746;52.228;20.890;2024-03-08T14:34:31;18.70;41.10
42085;DHT22;27746;52.228;20.890;2024-03-08T14:36:59;17.90;43.10
42085;DHT22;27746;52.228;20.890;2024-03-08T14:39:31;17.20;43.60
42085;DHT22;27746;52.228;20.890;2024-03-08T14:41:59;16.60;44.50
42085;DHT22;27746;52.228;20.890;2024-03-08T14:44:27;16.10;45.50
42085;DHT22;27746;52.228;20.890;2024-03-08T14:46:55;15.70;46.60
42085;DHT22;27746;52.228;20.890;2024-03-08T14:49:23;15.30;46.60
42085;DHT22;27746;52.228;20.890;2024-03-08T14:51:52;15.00;46.30
42085;DHT22;27746;52.228;20.890;2024-03-08T14:54:19;14.60;46.80
42085;DHT22;27746;52.228;20.890;2024-03-08T14:56:49;14.30;48.10
42085;DHT22;27746;52.228;20.890;2024-03-08T14:59:17;14.10;48.50
42085;DHT22;27746;52.228;20.890;2024-03-08T15:01:45;13.90;50.00
42085;DHT22;27746;52.228;20.890;2024-03-08T15:04:11;13.60;50.70
42085;DHT22;27746;52.228;20.890;2024-03-08T15:06:39;13.30;51.70
42085;DHT22;27746;52.228;20.890;2024-03-08T15:09:08;13.10;52.30
42085;DHT22;27746;52.228;20.890;2024-03-08T15:11:44;12.90;52.70
42085;DHT22;27746;52.228;20.890;2024-03-08T15:14:12;12.60;53.30
42085;DHT22;27746;52.228;20.890;2024-03-08T15:16:39;12.40;53.30
42085;DHT22;27746;52.228;20.890;2024-03-08T15:19:06;12.30;53.90
42085;DHT22;27746;52.228;20.890;2024-03-08T15:21:33;12.20;54.50
42085;DHT22;27746;52.228;20.890;2024-03-08T15:24:01;12.00;54.30
42085;DHT22;27746;52.228;20.890;2024-03-08T15:26:29;11.80;54.00
42085;DHT22;27746;52.228;20.890;2024-03-08T15:28:57;11.70;53.80
42085;DHT22;27746;52.228;20.890;2024-03-08T15:31:25;11.50;54.20
42085;DHT22;27746;52.228;20.890;2024-03-08T15:36:25;11.30;54.50
42085;DHT22;27746;52.228;20.890;2024-03-08T15:38:56;11.20;55.50